Time;durP1;ratioP1;P1;durP2;ratioP2;P2;SDS_P1;SDS_P2;PMS_P1;PMS_P2;Temp;Humidity;BMP_temperature;BMP_pressure;BME280_temperature;BME280_humidity;BME280_pressure;Samples;Min_cycle;Max_cycle;Signal;HPM_P1;HPM_P2
2022/01/04 00:01:21;;;;;;;15.15;8.98;;;;;;;7.87;76.91;99587.09;4450049;32;33551;-66
2022/01/04 00:03:50;;;;;;;14.80;8.50;;;;;;;8.16;76.47;99596.31;4451261;32;32723;-66
2022/01/04 00:06:18;;;;;;;15.07;7.00;;;;;;;8.81;73.49;99600.44;4448957;32;33912;-66
2022/01/04 00:08:45;;;;;;;13.45;6.70;;;;;;;8.56;74.96;99593.19;4446111;32;35002;-66
2022/01/04 00:11:19;;;;;;;14.95;7.40;;;;;;;9.48;72.28;99582.84;4451808;32;32650;-66
2022/01/04 00:13:47;;;;;;;14.05;6.40;;;;;;;10.13;69.84;99589.19;4442217;32;33221;-66
2022/01/04 00:16:15;;;;;;;14.23;6.40;;;;;;;10.46;68.57;99583.69;4448869;32;33986;-66
2022/01/04 00:18:46;;;;;;;14.07;6.60;;;;;;;10.57;66.95;99572.97;4441992;32;34458;-66
2022/01/04 00:21:13;;;;;;;19.35;7.95;;;;;;;10.08;68.20;99580.31;4444097;32;34189;-66
2022/01/04 00:23:43;;;;;;;13.45;7.32;;;;;;;10.72;65.87;99577.88;4448153;32;33733;-66
2022/01/04 00:26:10;;;;;;;15.15;7.45;;;;;;;10.65;66.01;99580.16;4448382;32;35235;-66
2022/01/04 00:28:38;;;;;;;17.17;8.38;;;;;;;10.78;64.77;99572.94;4440814;32;33544;-66
2022/01/04 00:31:06;;;;;;;17.05;8.70;;;;;;;9.28;70.36;99574.19;4446704;32;34225;-65
2022/01/04 00:33:33;;;;;;;19.17;8.85;;;;;;;10.35;66.60;99575.47;4445811;32;34239;-67
2022/01/04 00:36:01;;;;;;;16.83;9.52;;;;;;;10.18;66.97;99567.84;4449540;32;32859;-66
2022/01/04 00:38:29;;;;;;;17.60;8.98;;;;;;;9.96;68.27;99573.78;4440120;32;33745;-66
2022/01/04 00:40:56;;;;;;;17.42;9.23;;;;;;;8.69;72.89;99579.16;4446769;32;34507;-66
2022/01/04 00:43:24;;;;;;;18.33;9.60;;;;;;;8.71;73.94;99581.81;4445333;32;32847;-66
2022/01/04 00:45:53;;;;;;;17.90;8.75;;;;;;;9.10;72.09;99567.34;4446233;32;34542;-66
2022/01/04 00:50:48;;;;;;;15.20;8.80;;;;;;;9.71;69.32;99573.53;4449153;32;34297;-66
2022/01/04 00:53:16;;;;;;;15.65;8.23;;;;;;;10.07;68.09;99569.09;4447557;32;33217;-66
2022/01/04 00:55:44;;;;;;;16.85;8.57;;;;;;;10.56;66.59;99566.00;4448815;32;34619;-66
2022/01/04 00:58:12;;;;;;;16.02;8.48;;;;;;;10.64;66.01;99555.94;4436115;32;34533;-66
2022/01/04 01:00:40;;;;;;;12.93;7.43;;;;;;;9.58;69.38;99559.16;4443127;32;33551;-67
2022/01/04 01:03:08;;;;;;;15.32;8.88;;;;;;;10.34;66.96;99566.81;4448540;32;33561;-66
2022/01/04 01:05:36;;;;;;;17.58;9.00;;;;;;;10.16;67.38;99558.25;4447716;32;34547;-66
2022/01/04 01:08:04;;;;;;;16.25;9.40;;;;;;;10.19;67.49;99563.56;4449596;32;34052;-66
2022/01/04 01:10:47;;;;;;;15.77;8.82;;;;;;;10.32;67.20;99563.28;4444809;32;34043;-66
2022/01/04 01:13:15;;;;;;;24.27;12.73;;;;;;;10.17;67.47;99565.19;4443526;32;33565;-66
2022/01/04 01:15:46;;;;;;;21.80;11.52;;;;;;;10.43;66.84;99549.09;4447305;32;34544;-67
2022/01/04 01:18:15;;;;;;;32.53;18.58;;;;;;;10.62;65.77;99544.63;4447164;32;33948;-66
2022/01/04 01:20:46;;;;;;;22.58;12.85;;;;;;;10.80;65.06;99540.22;4440955;32;34781;-66
2022/01/04 01:23:13;;;;;;;22.05;12.20;;;;;;;10.30;66.32;99558.84;4446147;32;34100;-65
2022/01/04 01:25:41;;;;;;;17.77;9.50;;;;;;;10.31;66.39;99539.91;4444350;32;33899;-65
2022/01/04 01:28:09;;;;;;;21.80;11.80;;;;;;;10.52;66.04;99532.16;4449011;32;33924;-66
2022/01/04 01:30:39;;;;;;;19.48;11.12;;;;;;;10.38;66.47;99534.19;4449570;32;34728;-66
2022/01/04 01:33:08;;;;;;;17.67;11.05;;;;;;;9.45;69.66;99550.87;4448544;32;33391;-65
2022/01/04 01:35:37;;;;;;;18.75;11.85;;;;;;;9.50;70.04;99540.72;4444460;32;34676;-65
2022/01/04 01:38:06;;;;;;;18.50;11.38;;;;;;;10.13;67.84;99532.25;4450080;32;33757;-66
2022/01/04 01:40:33;;;;;;;19.37;11.02;;;;;;;10.30;66.62;99522.59;4446531;32;33932;-66
2022/01/04 01:43:01;;;;;;;19.98;11.43;;;;;;;10.58;65.20;99538.44;4449070;32;34119;-66
2022/01/04 01:45:29;;;;;;;23.10;12.13;;;;;;;10.49;65.44;99526.84;4449650;32;32053;-66
2022/01/04 01:47:57;;;;;;;20.55;10.98;;;;;;;10.57;65.21;99528.06;4450685;32;34486;-66
2022/01/04 01:50:24;;;;;;;18.85;12.18;;;;;;;10.39;65.62;99513.53;4443931;32;34651;-66
2022/01/04 01:52:53;;;;;;;19.35;12.02;;;;;;;10.35;65.84;99508.16;4444364;32;33532;-66
2022/01/04 01:55:21;;;;;;;21.05;12.90;;;;;;;10.21;66.26;99500.66;4446745;32;33833;-66
2022/01/04 01:57:50;;;;;;;19.62;12.30;;;;;;;10.14;66.43;99497.75;4449302;32;34501;-66
2022/01/04 02:00:20;;;;;;;20.23;12.05;;;;;;;10.18;66.55;99489.34;4449729;32;33941;-65
2022/01/04 02:02:48;;;;;;;23.27;13.40;;;;;;;10.30;65.99;99476.00;4402507;26;32751;-64
2022/01/04 02:05:16;;;;;;;23.02;13.15;;;;;;;10.63;64.36;99448.00;4437967;32;34804;-65
2022/01/04 02:07:45;;;;;;;22.08;13.75;;;;;;;10.75;63.80;99432.91;4439446;32;34098;-65
2022/01/04 02:10:12;;;;;;;21.35;12.60;;;;;;;10.75;63.60;99432.03;4438121;32;33297;-65
2022/01/04 02:12:46;;;;;;;23.65;14.10;;;;;;;10.56;64.56;99418.38;4433285;32;33807;-63
2022/01/04 02:15:17;;;;;;;33.85;14.57;;;;;;;10.43;64.76;99411.84;4438809;32;33386;-64
2022/01/04 02:17:45;;;;;;;26.65;14.75;;;;;;;10.50;64.85;99414.66;4437163;32;31629;-64
2022/01/04 02:20:14;;;;;;;24.05;14.20;;;;;;;10.30;65.14;99421.63;4446160;32;33686;-63
2022/01/04 02:22:41;;;;;;;22.48;13.48;;;;;;;9.96;66.43;99415.09;4443963;32;33336;-65
2022/01/04 02:25:10;;;;;;;25.48;13.98;;;;;;;9.77;67.06;99408.25;4446092;32;33714;-64
2022/01/04 02:27:39;;;;;;;24.55;14.07;;;;;;;10.11;66.06;99402.78;4435682;32;33981;-63
2022/01/04 02:30:09;;;;;;;22.75;14.27;;;;;;;10.17;66.04;99404.72;4434297;32;33281;-64
2022/01/04 02:32:37;;;;;;;25.55;15.25;;;;;;;10.39;65.49;99407.37;4435119;32;33086;-64
2022/01/04 02:35:05;;;;;;;22.58;13.30;;;;;;;10.15;66.41;99404.66;4438260;32;33888;-64
2022/01/04 02:37:33;;;;;;;23.35;12.95;;;;;;;10.53;65.17;99414.81;4438201;32;34505;-65
2022/01/04 02:40:01;;;;;;;26.48;14.95;;;;;;;10.47;65.09;99409.38;4436054;32;33632;-65
2022/01/04 02:42:29;;;;;;;23.27;14.68;;;;;;;10.54;64.55;99411.38;4434277;32;33261;-65
2022/01/04 02:45:00;;;;;;;23.35;14.70;;;;;;;9.81;67.18;99420.50;4445740;32;34700;-65
2022/01/04 02:47:33;;;;;;;22.87;13.57;;;;;;;10.24;65.88;99419.69;4439955;32;33964;-64
2022/01/04 02:50:00;;;;;;;21.75;13.85;;;;;;;10.57;64.76;99424.47;4444972;32;33629;-64
2022/01/04 02:52:28;;;;;;;23.65;14.43;;;;;;;10.40;65.40;99424.66;4433907;32;34231;-64
2022/01/04 02:54:56;;;;;;;21.48;13.13;;;;;;;9.88;66.81;99411.31;4446923;32;33759;-64
2022/01/04 02:57:23;;;;;;;24.17;13.62;;;;;;;10.55;65.19;99413.16;4430127;32;34668;-66
2022/01/04 02:59:51;;;;;;;23.90;14.63;;;;;;;10.39;65.55;99417.75;4437049;32;33905;-67
2022/01/04 03:02:18;;;;;;;22.77;13.77;;;;;;;10.32;65.82;99420.03;4438566;32;33274;-67
2022/01/04 03:04:47;;;;;;;23.23;14.13;;;;;;;10.42;65.30;99417.84;4442148;32;34411;-67
2022/01/04 03:07:14;;;;;;;21.23;13.80;;;;;;;9.91;67.49;99417.50;4446600;32;33744;-67
2022/01/04 03:09:43;;;;;;;22.98;14.15;;;;;;;10.37;65.80;99409.03;4441864;32;33765;-66
2022/01/04 03:12:11;;;;;;;24.87;13.55;;;;;;;10.10;66.82;99402.69;4445791;32;33381;-67
2022/01/04 03:14:38;;;;;;;24.75;14.93;;;;;;;10.11;66.88;99395.00;4444273;32;34583;-67
2022/01/04 03:17:06;;;;;;;23.35;13.35;;;;;;;10.49;65.37;99387.00;4432518;32;34563;-65
2022/01/04 03:19:34;;;;;;;23.85;14.10;;;;;;;10.52;65.02;99387.12;4433343;32;34568;-65
2022/01/04 03:22:03;;;;;;;21.10;13.30;;;;;;;9.56;68.96;99391.06;4436912;32;33669;-64
2022/01/04 03:24:31;;;;;;;23.98;13.27;;;;;;;9.77;68.47;99388.47;4437824;32;34553;-65
2022/01/04 03:26:59;;;;;;;22.52;13.20;;;;;;;9.90;67.25;99382.09;4420766;32;32388;-65
2022/01/04 03:29:27;;;;;;;21.15;13.05;;;;;;;10.08;66.68;99379.34;4425534;32;34008;-65
2022/01/04 03:31:57;;;;;;;21.08;13.48;;;;;;;10.06;66.57;99374.94;4435454;32;33529;-65
2022/01/04 03:34:25;;;;;;;20.17;12.32;;;;;;;8.62;71.93;99370.56;4427254;32;33498;-64
2022/01/04 03:36:52;;;;;;;22.62;13.32;;;;;;;8.44;73.26;99365.44;4437554;32;34121;-65
2022/01/04 03:39:20;;;;;;;23.40;12.73;;;;;;;9.12;70.68;99364.19;4435828;32;33853;-65
2022/01/04 03:41:48;;;;;;;24.23;13.20;;;;;;;9.09;70.64;99358.88;4431992;32;33383;-64
2022/01/04 03:44:18;;;;;;;23.12;13.02;;;;;;;9.06;70.85;99348.41;4432840;32;33709;-65
2022/01/04 03:46:48;;;;;;;23.08;12.45;;;;;;;8.32;73.82;99352.81;4447974;32;33844;-64
2022/01/04 03:49:16;;;;;;;22.00;13.60;;;;;;;8.79;71.81;99359.31;4438355;32;33806;-65
2022/01/04 03:51:44;;;;;;;22.25;12.77;;;;;;;9.25;70.00;99355.25;4443302;32;33187;-64
2022/01/04 03:54:12;;;;;;;21.30;12.63;;;;;;;9.65;68.56;99352.63;4424323;32;32101;-64
2022/01/04 03:56:39;;;;;;;20.90;12.43;;;;;;;8.93;70.47;99357.31;4433557;32;33550;-64
2022/01/04 03:59:07;;;;;;;25.12;14.00;;;;;;;8.74;71.81;99350.44;4434701;32;33886;-63
2022/01/04 04:01:35;;;;;;;21.35;12.37;;;;;;;8.54;72.55;99346.13;4438949;32;33241;-65
2022/01/04 04:04:03;;;;;;;24.05;13.18;;;;;;;8.99;71.19;99333.47;4434687;32;34514;-65
2022/01/04 04:06:30;;;;;;;22.37;12.37;;;;;;;8.16;73.47;99327.12;4438867;32;33327;-65
2022/01/04 04:08:58;;;;;;;27.08;13.85;;;;;;;8.17;74.16;99329.78;4435237;32;33540;-64
2022/01/04 04:11:26;;;;;;;23.55;13.40;;;;;;;8.98;70.87;99331.69;4435331;32;32293;-65
2022/01/04 04:13:54;;;;;;;21.08;12.18;;;;;;;9.12;70.08;99328.00;4434893;32;33510;-65
2022/01/04 04:16:22;;;;;;;21.58;11.70;;;;;;;9.03;70.04;99338.81;4425467;32;33554;-64
2022/01/04 04:18:50;;;;;;;19.37;11.55;;;;;;;9.02;70.04;99336.16;4420400;32;33932;-64
2022/01/04 04:21:18;;;;;;;21.23;12.32;;;;;;;9.03;69.94;99317.28;4443387;32;33200;-63
2022/01/04 04:23:46;;;;;;;20.20;12.50;;;;;;;8.31;72.58;99327.84;4435662;32;34461;-64
2022/01/04 04:26:15;;;;;;;19.95;12.52;;;;;;;8.64;71.34;99317.31;4434218;32;34477;-63
2022/01/04 04:28:43;;;;;;;21.25;13.25;;;;;;;7.84;74.67;99314.47;4433760;32;33318;-64
2022/01/04 04:31:12;;;;;;;22.37;12.95;;;;;;;8.88;70.84;99326.94;4437549;32;34138;-64
2022/01/04 04:33:41;;;;;;;20.65;12.00;;;;;;;9.07;69.25;99307.97;4434205;32;33649;-64
2022/01/04 04:36:10;;;;;;;19.83;11.48;;;;;;;9.17;69.11;99305.81;4435146;32;33400;-63
2022/01/04 04:38:38;;;;;;;24.37;12.55;;;;;;;8.74;70.74;99309.13;4431782;32;34723;-63
2022/01/04 04:41:07;;;;;;;24.50;12.65;;;;;;;9.23;68.71;99300.94;4408635;32;31854;-63
2022/01/04 04:43:35;;;;;;;21.90;11.85;;;;;;;9.33;68.35;99306.47;4438044;32;34308;-65
2022/01/04 04:46:04;;;;;;;20.65;12.13;;;;;;;9.21;68.32;99292.22;4439332;32;34767;-64
2022/01/04 04:48:33;;;;;;;27.00;13.52;;;;;;;9.42;67.98;99312.00;4429121;32;33715;-63
2022/01/04 04:51:01;;;;;;;23.02;11.80;;;;;;;9.76;66.06;99305.66;4426825;32;32937;-64
2022/01/04 04:53:29;;;;;;;22.25;12.43;;;;;;;9.53;66.80;99290.06;4438217;32;33173;-65
2022/01/04 04:55:57;;;;;;;21.30;11.48;;;;;;;9.47;67.07;99295.00;4442967;32;33930;-65
2022/01/04 04:58:25;;;;;;;20.08;11.77;;;;;;;9.34;67.61;99284.97;4443867;32;33847;-64
2022/01/04 05:00:52;;;;;;;21.40;11.65;;;;;;;9.29;67.95;99279.63;4433114;32;33706;-64
2022/01/04 05:03:20;;;;;;;21.05;11.57;;;;;;;9.23;68.46;99280.25;4438384;32;34723;-64
2022/01/04 05:05:48;;;;;;;26.50;12.37;;;;;;;9.03;68.46;99281.09;4439968;32;33860;-64
2022/01/04 05:08:16;;;;;;;23.27;12.65;;;;;;;9.13;68.09;99274.63;4439162;32;34398;-64
2022/01/04 05:10:44;;;;;;;20.62;12.20;;;;;;;9.10;68.78;99271.91;4440461;32;33298;-63
2022/01/04 05:13:11;;;;;;;20.88;12.43;;;;;;;8.99;69.00;99280.09;4437330;32;33954;-64
2022/01/04 05:15:39;;;;;;;19.40;11.12;;;;;;;9.06;68.56;99278.66;4442671;32;34513;-64
2022/01/04 05:18:09;;;;;;;22.42;12.43;;;;;;;9.09;67.95;99288.25;4442006;32;34353;-65
2022/01/04 05:20:36;;;;;;;23.42;12.02;;;;;;;8.94;68.27;99285.88;4439892;32;33572;-64
2022/01/04 05:23:04;;;;;;;21.67;12.13;;;;;;;8.85;68.67;99282.09;4423492;32;33868;-64
2022/01/04 05:25:31;;;;;;;23.38;12.48;;;;;;;8.74;69.17;99275.56;4434889;32;33908;-64
2022/01/04 05:27:59;;;;;;;21.45;12.40;;;;;;;8.41;70.18;99286.16;4433066;32;34265;-64
2022/01/04 05:30:27;;;;;;;22.80;12.63;;;;;;;8.62;69.54;99282.78;4441181;32;31274;-64
2022/01/04 05:32:54;;;;;;;26.83;12.85;;;;;;;8.58;69.56;99270.56;4433836;32;33664;-63
2022/01/04 05:35:22;;;;;;;25.75;13.15;;;;;;;9.08;67.58;99253.78;4444860;32;33428;-63
2022/01/04 05:37:50;;;;;;;23.87;12.55;;;;;;;9.13;67.46;99254.81;4446218;32;34248;-64
2022/01/04 05:40:17;;;;;;;19.90;11.68;;;;;;;9.00;67.50;99260.28;4447762;32;33329;-64
2022/01/04 05:42:45;;;;;;;24.80;12.95;;;;;;;9.28;66.41;99248.53;4440754;32;33678;-64
2022/01/04 05:45:12;;;;;;;24.27;13.30;;;;;;;9.16;66.73;99236.00;4441161;32;33551;-64
2022/01/04 05:47:40;;;;;;;21.87;12.85;;;;;;;8.92;67.65;99230.69;4436686;32;34408;-64
2022/01/04 05:50:08;;;;;;;22.30;13.07;;;;;;;8.43;69.68;99232.91;4434358;32;34297;-64
2022/01/04 05:52:35;;;;;;;22.70;12.48;;;;;;;8.55;68.90;99221.38;4447250;32;34009;-65
2022/01/04 05:55:04;;;;;;;20.02;12.02;;;;;;;8.72;68.28;99222.97;4436746;32;33842;-65
2022/01/04 05:57:32;;;;;;;20.35;11.82;;;;;;;8.84;68.08;99226.06;4438189;32;33549;-64
2022/01/04 06:00:00;;;;;;;21.75;12.30;;;;;;;8.56;68.25;99215.41;4434949;32;33253;-65
2022/01/04 06:02:28;;;;;;;20.27;11.63;;;;;;;8.48;68.63;99206.44;4411043;32;33217;-63
2022/01/04 06:04:56;;;;;;;21.17;11.65;;;;;;;8.90;67.52;99222.00;4436425;32;33754;-63
2022/01/04 06:07:24;;;;;;;22.17;12.77;;;;;;;8.65;68.99;99215.78;4445646;32;34768;-64
2022/01/04 06:09:53;;;;;;;21.10;11.85;;;;;;;8.54;68.82;99211.88;4447082;32;33560;-64
2022/01/04 06:15:04;;;;;;;19.23;11.52;;;;;;;8.36;69.31;99215.34;4449150;32;34648;-65
2022/01/04 06:17:34;;;;;;;20.30;11.50;;;;;;;9.12;66.44;99204.00;4435089;32;34725;-67
2022/01/04 06:20:07;;;;;;;22.25;13.77;;;;;;;8.91;66.22;99210.84;4450380;32;33639;-67
2022/01/04 06:22:36;;;;;;;21.15;13.65;;;;;;;9.22;64.50;99206.13;4446270;32;34711;-67
2022/01/04 06:25:07;;;;;;;21.95;12.00;;;;;;;8.86;65.39;99200.31;4439748;32;33879;-67
2022/01/04 06:27:35;;;;;;;21.55;11.95;;;;;;;8.77;66.40;99206.00;4436997;32;34460;-66
2022/01/04 06:30:04;;;;;;;20.25;11.93;;;;;;;8.99;66.16;99206.88;4436132;32;34137;-67
2022/01/04 06:32:32;;;;;;;20.88;11.50;;;;;;;9.22;65.27;99205.25;4439542;32;34249;-67
2022/01/04 06:35:00;;;;;;;19.80;12.18;;;;;;;9.09;65.84;99198.69;4434248;32;34407;-65
2022/01/04 06:37:27;;;;;;;21.25;11.18;;;;;;;8.48;67.97;99203.84;4437805;32;33755;-66
2022/01/04 06:39:55;;;;;;;18.50;11.32;;;;;;;8.36;69.18;99197.28;4446234;32;33297;-67
2022/01/04 06:42:23;;;;;;;22.85;12.13;;;;;;;8.59;68.27;99189.69;4448192;32;34419;-67
2022/01/04 06:44:50;;;;;;;18.35;11.38;;;;;;;8.43;69.10;99189.03;4433592;32;34564;-66
2022/01/04 06:47:18;;;;;;;20.33;11.02;;;;;;;8.45;69.08;99187.41;4445815;32;33993;-66
2022/01/04 06:49:46;;;;;;;16.92;10.15;;;;;;;8.18;70.75;99184.47;4441672;32;34279;-66
2022/01/04 06:52:14;;;;;;;17.17;10.43;;;;;;;8.38;70.05;99175.03;4434138;32;33400;-67
2022/01/04 06:54:41;;;;;;;18.37;10.45;;;;;;;8.58;69.10;99178.50;4439171;32;33519;-67
2022/01/04 06:57:09;;;;;;;16.70;10.13;;;;;;;8.67;68.83;99167.66;4434327;32;34051;-67
2022/01/04 06:59:37;;;;;;;17.15;9.65;;;;;;;8.74;68.86;99179.16;4436585;32;33519;-65
2022/01/04 07:02:05;;;;;;;29.90;14.45;;;;;;;8.89;68.45;99159.12;4437195;32;34032;-67
2022/01/04 07:04:33;;;;;;;19.83;10.13;;;;;;;9.00;67.94;99159.56;4438228;32;33878;-66
2022/01/04 07:07:01;;;;;;;17.55;9.95;;;;;;;8.95;68.26;99163.66;4437692;32;34372;-66
2022/01/04 07:09:29;;;;;;;19.62;10.18;;;;;;;8.64;69.31;99167.56;4437031;32;33604;-67
2022/01/04 07:11:57;;;;;;;21.58;11.40;;;;;;;8.66;69.48;99177.13;4433752;32;33906;-66
2022/01/04 07:14:25;;;;;;;94.90;51.45;;;;;;;9.11;67.78;99180.66;4440598;32;34024;-66
2022/01/04 07:16:53;;;;;;;30.45;18.12;;;;;;;9.54;66.15;99188.44;4440379;32;33814;-66
2022/01/04 07:19:22;;;;;;;33.55;23.55;;;;;;;9.29;66.03;99193.44;4438815;32;32433;-66
2022/01/04 07:21:49;;;;;;;31.02;19.75;;;;;;;9.02;67.92;99196.66;4434239;32;35046;-66
2022/01/04 07:24:17;;;;;;;19.70;12.93;;;;;;;8.71;69.03;99200.56;4435622;32;34364;-66
2022/01/04 07:26:45;;;;;;;24.10;12.77;;;;;;;8.84;68.85;99201.94;4427122;32;33684;-66
2022/01/04 07:29:13;;;;;;;18.05;10.77;;;;;;;8.59;69.66;99194.88;4426871;32;33626;-66
2022/01/04 07:31:41;;;;;;;21.23;11.12;;;;;;;8.73;69.33;99201.53;4436560;32;34636;-66
2022/01/04 07:34:08;;;;;;;22.37;11.60;;;;;;;8.20;71.62;99205.19;4432399;32;34085;-64
2022/01/04 07:36:36;;;;;;;19.95;11.60;;;;;;;8.28;71.82;99209.84;4431354;32;34683;-63
2022/01/04 07:39:04;;;;;;;18.23;10.90;;;;;;;8.60;70.74;99191.47;4435220;32;32795;-64
2022/01/04 07:41:33;;;;;;;16.92;10.02;;;;;;;8.77;70.15;99182.75;4433867;32;33815;-63
2022/01/04 07:44:01;;;;;;;19.77;11.80;;;;;;;9.18;68.69;99178.37;4436354;32;34725;-64
2022/01/04 07:46:28;;;;;;;20.05;11.27;;;;;;;9.15;68.90;99173.09;4435634;32;34133;-63
2022/01/04 07:48:57;;;;;;;19.37;11.10;;;;;;;9.11;68.89;99176.38;4434258;32;34108;-63
2022/01/04 07:51:24;;;;;;;18.87;9.95;;;;;;;9.20;68.63;99179.34;4429104;32;33755;-65
2022/01/04 07:53:52;;;;;;;17.48;10.70;;;;;;;9.21;68.61;99168.19;4434451;32;34468;-65
2022/01/04 07:56:19;;;;;;;19.75;9.13;;;;;;;9.67;67.07;99168.22;4431465;32;33921;-64
2022/01/04 07:58:47;;;;;;;17.02;9.93;;;;;;;9.57;67.43;99157.50;4432977;32;33339;-65
2022/01/04 08:01:15;;;;;;;15.77;9.40;;;;;;;9.73;66.77;99146.03;4437322;32;33408;-64
2022/01/04 08:03:44;;;;;;;14.52;8.85;;;;;;;9.70;67.22;99152.81;4439484;32;34599;-64
2022/01/04 08:06:11;;;;;;;14.43;8.88;;;;;;;9.55;67.49;99146.22;4443158;32;34102;-64
2022/01/04 08:08:39;;;;;;;16.55;9.88;;;;;;;9.84;66.93;99144.72;4443534;32;33091;-64
2022/01/04 08:11:08;;;;;;;17.15;10.23;;;;;;;9.88;66.48;99137.97;4431799;32;33480;-65
2022/01/04 08:13:35;;;;;;;16.75;9.38;;;;;;;9.75;67.25;99143.50;4445023;32;34718;-64
2022/01/04 08:16:04;;;;;;;16.42;9.00;;;;;;;10.41;65.06;99125.19;4440335;32;32820;-65
2022/01/04 08:18:31;;;;;;;12.50;8.07;;;;;;;10.41;64.77;99120.94;4446941;32;34209;-63
2022/01/04 08:21:19;;;;;;;15.57;8.70;;;;;;;10.32;65.31;99119.72;4436699;32;33946;-63
2022/01/04 08:23:47;;;;;;;17.45;8.88;;;;;;;10.19;65.65;99108.03;4449423;32;33529;-64
2022/01/04 08:26:16;;;;;;;15.48;8.60;;;;;;;10.10;66.20;99102.50;4447347;32;33616;-63
2022/01/04 08:28:43;;;;;;;15.35;8.55;;;;;;;10.02;66.44;99105.75;4445994;32;34278;-64
2022/01/04 08:31:11;;;;;;;12.52;7.78;;;;;;;10.52;64.57;99102.28;4441899;32;33245;-63
2022/01/04 08:33:52;;;;;;;14.45;7.93;;;;;;;9.78;66.63;99102.25;4437771;32;33919;-63
2022/01/04 08:36:22;;;;;;;13.80;7.75;;;;;;;10.06;65.79;99091.16;4444637;32;33378;-63
2022/01/04 08:38:49;;;;;;;11.00;6.03;;;;;;;9.59;67.87;99106.72;4448876;32;33661;-63
2022/01/04 08:41:16;;;;;;;11.30;6.28;;;;;;;8.79;71.17;99105.34;4441383;32;34537;-65
2022/01/04 08:43:45;;;;;;;12.07;6.62;;;;;;;8.75;71.79;99109.50;4440063;32;33822;-66
2022/01/04 08:46:12;;;;;;;12.50;6.30;;;;;;;8.32;73.50;99111.94;4447260;32;33673;-65
2022/01/04 08:48:40;;;;;;;12.63;7.05;;;;;;;8.44;73.39;99103.06;4449945;32;33965;-65
2022/01/04 08:51:08;;;;;;;12.23;6.78;;;;;;;8.64;72.62;99100.44;4441997;32;33770;-66
2022/01/04 08:53:36;;;;;;;12.37;6.30;;;;;;;8.36;74.28;99094.06;4440600;32;33122;-67
2022/01/04 08:56:04;;;;;;;12.13;6.82;;;;;;;8.24;75.12;99101.31;4440546;32;34482;-67
2022/01/04 08:58:33;;;;;;;15.02;6.40;;;;;;;8.27;74.38;99101.44;4444095;32;33595;-67
2022/01/04 09:01:02;;;;;;;11.82;6.40;;;;;;;8.06;75.10;99093.66;4449151;32;33742;-67
2022/01/04 09:03:30;;;;;;;13.18;6.85;;;;;;;7.82;76.05;99085.72;4437771;32;33991;-67
2022/01/04 09:05:58;;;;;;;11.93;6.45;;;;;;;7.94;76.25;99078.53;4442426;32;34599;-66
2022/01/04 09:08:26;;;;;;;11.48;6.65;;;;;;;8.87;72.73;99074.66;4439685;32;34147;-66
2022/01/04 09:10:54;;;;;;;11.23;7.10;;;;;;;9.14;70.92;99088.66;4440311;32;33425;-66
2022/01/04 09:13:25;;;;;;;10.90;6.80;;;;;;;8.83;71.79;99087.44;4447079;32;34035;-67
2022/01/04 09:18:48;;;;;;;12.55;6.87;;;;;;;8.04;74.67;99079.81;4440645;32;34013;-67
2022/01/04 09:21:26;;;;;;;13.00;7.90;;;;;;;7.99;74.77;99065.84;4440976;32;33705;-67
2022/01/04 09:23:56;;;;;;;13.32;7.10;;;;;;;8.09;75.46;99047.34;4428000;32;34525;-66
2022/01/04 09:26:25;;;;;;;12.55;7.70;;;;;;;8.67;73.51;99054.06;4437082;32;33980;-65
2022/01/04 09:28:53;;;;;;;14.20;7.20;;;;;;;8.99;71.81;99057.06;4431255;32;33698;-67
2022/01/04 09:31:23;;;;;;;12.32;6.90;;;;;;;9.77;69.33;99046.16;4440577;32;34423;-67
2022/01/04 09:33:52;;;;;;;12.45;7.75;;;;;;;9.13;70.61;99052.41;4434117;32;34087;-67
2022/01/04 09:36:32;;;;;;;13.35;6.78;;;;;;;9.24;70.91;99044.25;4435204;32;34212;-66
2022/01/04 09:39:05;;;;;;;12.00;7.05;;;;;;;9.39;70.81;99027.56;4448934;32;33254;-67
2022/01/04 09:41:33;;;;;;;13.13;7.15;;;;;;;9.30;70.69;99012.59;4441975;32;33702;-66
2022/01/04 09:44:02;;;;;;;10.48;6.53;;;;;;;8.88;73.13;99022.19;4447641;32;34570;-66
2022/01/04 09:46:30;;;;;;;13.82;6.80;;;;;;;9.82;69.40;99013.59;4439188;32;33288;-66
2022/01/04 09:48:57;;;;;;;12.75;7.22;;;;;;;10.02;69.21;99017.75;4440697;32;34121;-66
2022/01/04 09:51:27;;;;;;;10.95;6.80;;;;;;;10.39;67.92;99008.66;4440051;32;34594;-66
2022/01/04 09:53:55;;;;;;;11.52;6.75;;;;;;;10.42;67.18;98995.81;4447815;32;35693;-66
2022/01/04 09:56:22;;;;;;;11.20;6.07;;;;;;;9.78;69.29;98980.69;4437891;32;33898;-66
2022/01/04 09:58:51;;;;;;;12.00;6.05;;;;;;;10.47;67.01;98971.78;4439570;32;33441;-66
2022/01/04 10:01:24;;;;;;;12.45;6.82;;;;;;;10.93;65.60;98966.31;4438436;32;33498;-66
2022/01/04 10:04:12;;;;;;;12.40;7.00;;;;;;;10.24;69.72;98956.37;4437580;32;34698;-66
2022/01/04 10:06:56;;;;;;;9.82;6.05;;;;;;;9.64;71.76;98955.22;4433675;32;33758;-66
2022/01/04 10:09:52;;;;;;;12.93;6.70;;;;;;;9.41;72.46;98953.56;4446869;32;33490;-64
2022/01/04 10:12:23;;;;;;;9.18;5.43;;;;;;;9.80;72.01;98959.22;4435082;32;33827;-64
2022/01/04 10:14:52;;;;;;;14.80;6.50;;;;;;;9.50;72.44;98951.25;4435544;32;32148;-64
2022/01/04 10:17:28;;;;;;;11.68;6.10;;;;;;;9.57;72.92;98935.16;4438905;32;34674;-64
2022/01/04 10:19:59;;;;;;;11.70;6.10;;;;;;;9.37;73.37;98926.72;4434347;32;34331;-64
2022/01/04 10:22:30;;;;;;;11.20;6.53;;;;;;;9.65;73.17;98932.84;4435763;32;33076;-65
2022/01/04 10:25:04;;;;;;;10.73;6.35;;;;;;;9.42;73.68;98932.03;4421376;32;34514;-64
2022/01/04 10:27:40;;;;;;;10.30;6.12;;;;;;;9.53;73.30;98933.28;4436169;32;33551;-69
2022/01/04 10:30:20;;;;;;;8.68;5.40;;;;;;;10.33;70.65;98933.37;4443529;32;33188;-67
2022/01/04 10:32:58;;;;;;;9.18;5.62;;;;;;;10.89;69.80;98919.53;4448281;32;34482;-67
2022/01/04 10:35:31;;;;;;;14.45;5.62;;;;;;;10.79;68.46;98915.78;4437734;32;34003;-66
2022/01/04 10:38:03;;;;;;;9.05;5.35;;;;;;;10.71;68.76;98906.91;4442342;32;32360;-67
2022/01/04 10:40:31;;;;;;;8.70;5.12;;;;;;;11.47;67.44;98900.41;4439732;32;33918;-66
2022/01/04 10:43:10;;;;;;;9.95;5.65;;;;;;;11.05;68.91;98908.78;4435286;32;34684;-66
2022/01/04 10:45:39;;;;;;;10.23;5.65;;;;;;;11.08;69.30;98903.66;4439279;32;34087;-68
2022/01/04 10:48:12;;;;;;;9.05;5.82;;;;;;;10.96;68.21;98903.34;4429503;32;33417;-67
2022/01/04 10:50:41;;;;;;;9.75;5.53;;;;;;;10.98;69.16;98912.03;4438713;32;33055;-69
2022/01/04 10:53:24;;;;;;;8.38;5.70;;;;;;;11.25;68.77;98916.25;4440783;32;33470;-68
2022/01/04 10:55:56;;;;;;;9.70;5.37;;;;;;;10.70;69.55;98906.06;4434454;32;35151;-68
2022/01/04 10:58:32;;;;;;;11.25;5.60;;;;;;;10.87;70.77;98897.88;4444107;32;33838;-68
2022/01/04 11:01:09;;;;;;;9.52;5.25;;;;;;;10.49;71.43;98889.84;4424200;32;33466;-68
2022/01/04 11:03:42;;;;;;;10.43;5.30;;;;;;;10.46;71.93;98884.59;4439439;32;34770;-68
2022/01/04 11:06:16;;;;;;;9.55;5.53;;;;;;;10.23;72.52;98887.31;4443389;32;33677;-68
2022/01/04 11:08:44;;;;;;;9.48;5.45;;;;;;;10.69;71.36;98868.03;4438140;32;33440;-68
2022/01/04 11:11:13;;;;;;;9.60;5.53;;;;;;;11.15;69.26;98866.72;4448406;32;33732;-68
2022/01/04 11:13:41;;;;;;;10.07;5.60;;;;;;;10.08;73.37;98866.13;4435061;32;33407;-68
2022/01/04 11:16:09;;;;;;;8.23;5.03;;;;;;;10.31;73.37;98859.09;4442537;32;34687;-69
2022/01/04 11:18:42;;;;;;;8.48;4.90;;;;;;;10.25;73.04;98852.00;4447043;32;32434;-68
2022/01/04 11:21:14;;;;;;;12.05;5.35;;;;;;;10.60;71.92;98854.78;4437857;32;32580;-68
2022/01/04 11:23:42;;;;;;;10.38;5.25;;;;;;;10.72;71.33;98833.53;4438755;32;33934;-68
2022/01/04 11:26:11;;;;;;;9.27;5.20;;;;;;;10.55;72.29;98835.66;4431308;32;33688;-67
2022/01/04 11:28:45;;;;;;;11.48;5.47;;;;;;;11.24;69.67;98831.50;4435389;32;34302;-67
2022/01/04 11:31:29;;;;;;;10.68;5.30;;;;;;;10.90;71.02;98833.22;4430054;32;33458;-68
2022/01/04 11:34:03;;;;;;;11.20;5.50;;;;;;;10.26;73.53;98838.22;4421896;32;34522;-67
2022/01/04 11:36:41;;;;;;;9.45;5.50;;;;;;;10.31;73.01;98844.44;4408091;32;34683;-69
2022/01/04 11:39:30;;;;;;;9.48;4.97;;;;;;;9.97;74.16;98848.56;4431768;32;33741;-66
2022/01/04 11:42:04;;;;;;;9.18;5.32;;;;;;;9.83;75.04;98823.94;4431316;32;33801;-67
2022/01/04 11:44:32;;;;;;;9.88;5.10;;;;;;;9.95;74.85;98801.06;4431627;32;33678;-66